Time;durP1;ratioP1;P1;durP2;ratioP2;P2;SDS_P1;SDS_P2;PMS_P1;PMS_P2;Temp;Humidity;BMP_temperature;BMP_pressure;BME280_temperature;BME280_humidity;BME280_pressure;Samples;Min_cycle;Max_cycle;Signal;HPM_P1;HPM_P2
2022/08/04 00:00:09;;;;;;;0.10;0.10;;;;;;;24.84;57.47;101373.63;5078387;28;20081;-85
2022/08/04 00:03:01;;;;;;;0.10;0.10;;;;;;;24.91;57.81;101373.19;5077628;28;20100;-84
2022/08/04 00:05:47;;;;;;;;;;;;;;;24.96;57.83;101362.88;5078752;28;20024;-83
2022/08/04 00:08:29;;;;;;;0.10;0.10;;;;;;;24.85;57.53;101369.94;5083749;28;19908;-84
2022/08/04 00:10:59;;;;;;;0.00;0.00;;;;;;;24.79;57.81;101364.97;5083560;28;20096;-83
2022/08/04 00:13:30;;;;;;;0.40;0.40;;;;;;;24.77;57.75;101366.91;5079530;28;20028;-83
2022/08/04 00:16:03;;;;;;;0.20;0.20;;;;;;;24.77;57.73;101361.50;5078243;28;20036;-84
2022/08/04 00:18:38;;;;;;;0.57;0.57;;;;;;;24.76;58.02;101358.91;5077539;28;20025;-84
2022/08/04 00:21:08;;;;;;;0.10;0.10;;;;;;;24.71;58.02;101362.81;5076177;28;20066;-83
2022/08/04 00:23:37;;;;;;;0.30;0.30;;;;;;;24.71;57.96;101362.81;5076862;28;20085;-84
2022/08/04 00:26:04;;;;;;;0.20;0.20;;;;;;;24.73;57.73;101362.72;5076121;28;20506;-84
2022/08/04 00:28:37;;;;;;;0.20;0.20;;;;;;;24.75;57.67;101360.75;5076589;28;20033;-83
2022/08/04 00:31:04;;;;;;;0.15;0.15;;;;;;;24.70;57.59;101360.22;5076051;28;20195;-85
2022/08/04 00:33:31;;;;;;;0.13;0.13;;;;;;;24.70;58.04;101357.53;5076066;28;20029;-84
2022/08/04 00:35:58;;;;;;;0.00;0.00;;;;;;;24.69;57.63;101356.63;5082026;28;20120;-84
2022/08/04 00:38:26;;;;;;;0.00;0.00;;;;;;;24.69;58.00;101358.50;5084993;28;20029;-83
2022/08/04 00:51:54;;;;;;;0.00;0.00;;;;;;;24.64;57.67;101344.38;5112213;27;20361;-82
2022/08/04 01:03:23;;;;;;;0.00;0.00;;;;;;;24.58;58.30;101350.25;5093998;27;1867546;-83
2022/08/04 01:06:05;;;;;;;0.10;0.10;;;;;;;24.53;58.35;101342.44;5112902;28;20036;-82
2022/08/04 01:14:04;;;;;;;1.75;0.73;;;;;;;24.48;58.54;101328.34;5092450;27;20142;-83
2022/08/04 01:16:38;;;;;;;0.10;0.10;;;;;;;24.44;58.78;101330.41;5092909;28;20047;-83
2022/08/04 01:19:19;;;;;;;0.00;0.00;;;;;;;24.44;58.83;101326.84;5092158;28;20024;-83
2022/08/04 01:22:16;;;;;;;0.00;0.00;;;;;;;24.47;58.96;101316.63;5091695;28;20027;-85
2022/08/04 01:30:09;;;;;;;0.05;0.05;;;;;;;24.34;59.23;101326.63;5112931;27;21010;-83
2022/08/04 01:32:39;;;;;;;0.10;0.10;;;;;;;24.31;58.91;101325.00;5110430;27;20059;-82
2022/08/04 01:35:20;;;;;;;0.10;0.10;;;;;;;24.33;59.16;101320.34;5112006;28;20034;-83
2022/08/04 01:40:38;;;;;;;0.10;0.10;;;;;;;24.26;59.42;101324.44;5120949;27;1176347;-84
2022/08/04 01:43:04;;;;;;;0.10;0.10;;;;;;;24.24;59.23;101323.69;5130202;27;20122;-84
2022/08/04 01:45:32;;;;;;;0.10;0.10;;;;;;;24.23;59.22;101319.25;5113746;28;20028;-83
2022/08/04 01:48:00;;;;;;;0.10;0.10;;;;;;;24.22;59.48;101312.09;5113724;28;20028;-84
2022/08/04 01:50:30;;;;;;;0.10;0.10;;;;;;;24.23;59.27;101320.09;5114747;28;20372;-84
2022/08/04 01:52:57;;;;;;;0.10;0.10;;;;;;;24.23;59.24;101320.09;5113325;28;20539;-83
2022/08/04 01:55:27;;;;;;;0.10;0.10;;;;;;;24.23;59.23;101311.13;5112619;28;20031;-84
2022/08/04 01:57:55;;;;;;;0.75;0.75;;;;;;;24.22;59.89;101304.88;5111104;28;20057;-83
2022/08/04 02:00:26;;;;;;;0.43;0.35;;;;;;;24.21;59.36;101302.25;5112607;28;20046;-83
2022/08/04 02:02:53;;;;;;;0.47;0.47;;;;;;;24.20;58.93;101304.09;5112660;28;20028;-83
2022/08/04 02:05:22;;;;;;;2.47;1.25;;;;;;;24.22;59.28;101301.28;5113600;28;20031;-83
2022/08/04 02:13:32;;;;;;;0.67;0.67;;;;;;;24.23;59.49;101297.59;5115246;27;1184571;-82
2022/08/04 02:19:00;;;;;;;0.13;0.13;;;;;;;24.30;59.58;101287.19;5111817;27;20840;-85
2022/08/04 02:21:29;;;;;;;0.00;0.00;;;;;;;24.25;59.50;101289.34;5110565;28;20043;-84
2022/08/04 02:24:01;;;;;;;0.10;0.10;;;;;;;24.29;59.42;101288.16;5111829;28;20028;-85
2022/08/04 02:26:33;;;;;;;0.10;0.10;;;;;;;24.27;59.07;101284.72;5111749;28;20070;-85
2022/08/04 02:31:47;;;;;;;0.10;0.10;;;;;;;24.26;59.53;101291.94;5071987;28;20379;-84
2022/08/04 02:36:51;;;;;;;0.10;0.10;;;;;;;24.22;59.28;101298.56;5073135;28;20386;-84
2022/08/04 02:39:20;;;;;;;0.10;0.10;;;;;;;24.22;59.14;101293.16;5072201;28;20029;-84
2022/08/04 02:41:48;;;;;;;0.10;0.10;;;;;;;24.25;59.06;101284.81;5072206;28;20051;-84
2022/08/04 02:44:20;;;;;;;0.10;0.10;;;;;;;24.29;59.19;101285.44;5073160;28;20061;-84
2022/08/04 02:46:47;;;;;;;;;;;;;;;24.41;59.00;101290.00;5072296;28;20119;-83
2022/08/04 02:49:14;;;;;;;0.10;0.10;;;;;;;24.32;58.79;101288.81;5071704;28;19908;-83
2022/08/04 02:51:44;;;;;;;0.00;0.00;;;;;;;24.35;58.63;101287.72;5071428;28;20029;-84
2022/08/04 02:54:10;;;;;;;0.08;0.08;;;;;;;24.32;58.38;101275.25;5071899;28;20401;-84
2022/08/04 02:56:39;;;;;;;0.10;0.10;;;;;;;24.32;59.10;101279.81;5071658;28;20021;-83
2022/08/04 02:59:08;;;;;;;0.10;0.10;;;;;;;24.31;58.93;101281.69;5072902;28;20044;-83
2022/08/04 03:01:34;;;;;;;0.10;0.10;;;;;;;24.32;58.53;101293.38;5078972;28;20029;-84
2022/08/04 03:07:11;;;;;;;0.10;0.10;;;;;;;24.41;58.58;101284.56;5093277;28;20367;-82
2022/08/04 03:18:39;;;;;;;0.10;0.10;;;;;;;24.33;59.30;101276.16;5092008;28;20720;-83
2022/08/04 03:24:24;;;;;;;0.00;0.00;;;;;;;24.34;59.13;101277.88;5072415;28;20383;-83
2022/08/04 03:27:29;;;;;;;0.10;0.10;;;;;;;24.32;59.25;101279.81;5073138;28;20416;-83
2022/08/04 03:30:18;;;;;;;0.10;0.10;;;;;;;24.30;59.12;101273.66;5073392;28;20029;-83
2022/08/04 03:36:04;;;;;;;0.10;0.10;;;;;;;24.35;58.13;101268.75;5116157;27;20380;-83
2022/08/04 03:53:08;;;;;;;0.10;0.10;;;;;;;24.64;57.30;101277.50;5122072;27;1166494;-84
2022/08/04 03:56:14;;;;;;;0.10;0.10;;;;;;;24.66;57.04;101281.00;5114631;28;20032;-85
2022/08/04 04:01:44;;;;;;;0.10;0.10;;;;;;;24.67;57.01;101271.03;5109719;27;20361;-83
2022/08/04 04:10:20;;;;;;;0.20;0.20;;;;;;;24.65;57.21;101260.31;5115064;27;20327;-84
2022/08/04 04:20:57;;;;;;;0.43;0.40;;;;;;;24.51;57.85;101261.28;5089532;27;20443;-82
2022/08/04 04:26:26;;;;;;;0.25;0.25;;;;;;;24.42;58.37;101270.06;5068936;28;20398;-83
2022/08/04 04:48:29;;;;;;;0.10;0.10;;;;;;;24.41;58.53;101276.44;5115406;27;20327;-84
2022/08/04 04:56:50;;;;;;;0.10;0.10;;;;;;;24.46;58.07;101284.25;5114068;27;20376;-82
2022/08/04 04:59:23;;;;;;;0.10;0.10;;;;;;;24.46;58.29;101282.44;5114267;28;20044;-84
2022/08/04 05:02:17;;;;;;;0.17;0.17;;;;;;;24.53;57.95;101280.13;5128634;28;20031;-85
2022/08/04 05:05:17;;;;;;;0.10;0.10;;;;;;;24.59;58.10;101276.97;5119007;28;20479;-84
2022/08/04 05:08:11;;;;;;;0.10;0.10;;;;;;;24.61;58.01;101276.84;5114925;28;20036;-84
2022/08/04 05:10:55;;;;;;;0.10;0.10;;;;;;;24.65;57.57;101279.28;5115187;28;20031;-84
2022/08/04 05:13:43;;;;;;;0.10;0.10;;;;;;;24.69;57.26;101285.34;5115564;28;20042;-82
2022/08/04 05:18:51;;;;;;;0.10;0.10;;;;;;;24.68;57.63;101294.44;5112756;27;20391;-84
2022/08/04 05:21:41;;;;;;;0.10;0.10;;;;;;;24.75;57.30;101290.31;5111698;28;20040;-84
2022/08/04 05:24:12;;;;;;;0.30;0.20;;;;;;;24.74;57.02;101295.84;5112904;28;20027;-84
2022/08/04 05:26:44;;;;;;;0.10;0.10;;;;;;;24.74;56.94;101302.13;5117461;28;20024;-84
2022/08/04 05:29:15;;;;;;;;;;;;;;;24.83;56.85;101293.31;5118299;28;20027;-84
2022/08/04 05:31:48;;;;;;;0.10;0.10;;;;;;;24.67;57.34;101295.41;5114582;28;19933;-84
2022/08/04 05:34:21;;;;;;;0.45;0.45;;;;;;;24.70;57.16;101287.06;5101550;22;20518;-77
2022/08/04 05:36:51;;;;;;;2.90;1.30;;;;;;;24.65;57.39;101286.53;5051443;28;20483;-77
2022/08/04 05:39:27;;;;;;;0.10;0.10;;;;;;;24.68;57.24;101297.16;5051808;28;20032;-77
2022/08/04 05:41:57;;;;;;;0.10;0.10;;;;;;;24.66;57.56;101301.81;5053029;28;20029;-78
2022/08/04 05:44:26;;;;;;;0.10;0.10;;;;;;;24.65;57.48;101295.53;5054568;28;20033;-77
2022/08/04 05:46:55;;;;;;;0.10;0.10;;;;;;;24.66;57.74;101297.25;5054271;28;20488;-77
2022/08/04 05:49:24;;;;;;;0.10;0.10;;;;;;;24.55;58.60;101307.97;5054704;28;20029;-77
2022/08/04 05:51:52;;;;;;;0.10;0.10;;;;;;;24.58;57.83;101296.91;5053818;28;20030;-77
2022/08/04 05:54:20;;;;;;;0.03;0.03;;;;;;;24.46;59.18;101303.22;5053944;28;20057;-78
2022/08/04 05:56:47;;;;;;;0.10;0.10;;;;;;;24.50;58.68;101304.72;5056949;28;20078;-78
2022/08/04 05:59:15;;;;;;;0.10;0.10;;;;;;;24.45;58.75;101302.34;5054769;28;20112;-77
2022/08/04 06:01:43;;;;;;;0.10;0.10;;;;;;;24.44;59.04;101300.63;5053901;28;20506;-77
2022/08/04 06:04:10;;;;;;;0.17;0.17;;;;;;;24.47;59.10;101299.53;5054135;28;20093;-77
2022/08/04 06:06:37;;;;;;;0.10;0.10;;;;;;;24.44;58.94;101302.47;5054169;28;20104;-77
2022/08/04 06:09:04;;;;;;;0.10;0.10;;;;;;;24.40;59.23;101304.53;5053657;28;20029;-78
2022/08/04 06:11:31;;;;;;;0.20;0.20;;;;;;;24.39;59.91;101300.09;5054633;28;20439;-77
2022/08/04 06:14:02;;;;;;;0.05;0.05;;;;;;;24.44;58.69;101299.75;5055584;28;20040;-78
2022/08/04 06:16:36;;;;;;;1.08;0.88;;;;;;;24.40;60.24;101307.25;5055224;28;20064;-77
2022/08/04 06:19:06;;;;;;;1.17;0.80;;;;;;;24.42;59.36;101302.56;5056027;28;20119;-76
2022/08/04 06:21:33;;;;;;;0.10;0.10;;;;;;;24.39;59.66;101308.22;5055728;28;20128;-78
2022/08/04 06:24:01;;;;;;;0.10;0.10;;;;;;;24.32;60.52;101315.88;5055501;28;20431;-78
2022/08/04 06:26:29;;;;;;;0.13;0.13;;;;;;;24.28;61.05;101306.25;5055453;28;20028;-78
2022/08/04 06:28:56;;;;;;;0.35;0.35;;;;;;;24.30;60.43;101319.69;5049408;28;20041;-77
2022/08/04 06:31:41;;;;;;;0.10;0.10;;;;;;;24.29;60.23;101308.00;5041560;28;20025;-78
2022/08/04 06:34:10;;;;;;;1.27;1.17;;;;;;;24.36;60.34;101313.81;5042148;28;20029;-78
2022/08/04 06:36:37;;;;;;;0.05;0.05;;;;;;;24.38;60.09;101306.47;5042257;28;20049;-78
2022/08/04 06:39:04;;;;;;;0.10;0.10;;;;;;;24.35;61.32;101317.50;5042301;28;20040;-79
2022/08/04 06:41:31;;;;;;;0.15;0.15;;;;;;;24.34;61.35;101323.94;5042543;28;20079;-78
2022/08/04 06:44:02;;;;;;;0.00;0.00;;;;;;;24.41;60.52;101325.19;5043974;28;20037;-78
2022/08/04 06:46:30;;;;;;;0.10;0.10;;;;;;;24.37;61.12;101320.97;5043682;28;20033;-78
2022/08/04 06:48:57;;;;;;;0.20;0.20;;;;;;;24.42;61.12;101324.22;5043927;28;20032;-78
2022/08/04 06:51:24;;;;;;;0.20;0.20;;;;;;;24.42;60.52;101324.22;5041152;28;20025;-77
2022/08/04 06:53:51;;;;;;;32.78;1.95;;;;;;;24.47;60.44;101322.06;5043650;28;20124;-78
2022/08/04 06:56:19;;;;;;;0.00;0.00;;;;;;;24.55;60.33;101316.97;5043325;28;20082;-77
2022/08/04 06:58:47;;;;;;;0.10;0.10;;;;;;;24.57;60.59;101319.56;5043034;28;20041;-77
2022/08/04 07:01:16;;;;;;;0.10;0.10;;;;;;;24.66;60.04;101315.34;5043471;28;20099;-77
2022/08/04 07:03:43;;;;;;;0.10;0.10;;;;;;;24.75;59.92;101322.81;5044011;28;20030;-77
2022/08/04 07:06:09;;;;;;;0.00;0.00;;;;;;;24.75;60.29;101313.81;5043697;28;20064;-76
2022/08/04 07:08:36;;;;;;;0.10;0.10;;;;;;;24.79;59.57;101321.63;5044073;28;20028;-77
2022/08/04 07:11:04;;;;;;;0.10;0.10;;;;;;;24.91;59.31;101324.41;5042791;28;20033;-78
2022/08/04 07:13:40;;;;;;;0.10;0.10;;;;;;;25.04;59.42;101325.25;5027468;28;20029;-79
2022/08/04 07:16:09;;;;;;;0.10;0.10;;;;;;;24.98;59.16;101320.28;5042228;28;20044;-77
2022/08/04 07:18:35;;;;;;;0.00;0.00;;;;;;;25.09;58.82;101324.91;5037811;28;20089;-77
2022/08/04 07:21:01;;;;;;;0.10;0.10;;;;;;;25.12;58.63;101336.41;5037410;28;20272;-77
2022/08/04 07:23:27;;;;;;;0.63;0.63;;;;;;;25.10;58.75;101340.19;5038070;28;20036;-77
2022/08/04 07:25:56;;;;;;;0.85;0.47;;;;;;;25.25;58.28;101338.19;5037402;28;20037;-77
2022/08/04 07:28:26;;;;;;;0.65;0.65;;;;;;;25.10;58.32;101351.91;5038295;28;20121;-80
2022/08/04 07:30:54;;;;;;;1.17;1.08;;;;;;;25.14;57.75;101342.56;5040437;28;20032;-78
2022/08/04 07:33:21;;;;;;;0.10;0.10;;;;;;;25.34;57.95;101337.50;5040401;28;20032;-77
2022/08/04 07:35:50;;;;;;;0.20;0.20;;;;;;;25.39;57.95;101348.91;5042952;28;20044;-78
2022/08/04 07:38:17;;;;;;;0.52;0.40;;;;;;;25.49;57.86;101341.78;5042753;28;20431;-78
2022/08/04 07:40:43;;;;;;;0.10;0.10;;;;;;;25.63;57.52;101348.03;5040833;28;20029;-76
2022/08/04 07:43:09;;;;;;;0.70;0.70;;;;;;;25.70;57.23;101351.16;5045003;28;20038;-78
2022/08/04 07:45:36;;;;;;;0.10;0.10;;;;;;;25.77;56.24;101349.69;5045324;28;20034;-77
2022/08/04 07:48:04;;;;;;;0.20;0.20;;;;;;;25.79;56.14;101359.44;5044637;28;20064;-77
2022/08/04 07:50:32;;;;;;;0.10;0.10;;;;;;;25.76;55.74;101364.25;5043773;28;20087;-77
2022/08/04 07:52:59;;;;;;;0.10;0.10;;;;;;;25.81;56.19;101360.19;5043998;28;20029;-77
2022/08/04 07:55:27;;;;;;;1.55;0.77;;;;;;;25.90;56.18;101369.47;5043926;28;20025;-78
2022/08/04 07:57:53;;;;;;;0.10;0.10;;;;;;;25.88;55.72;101370.56;5044454;28;20064;-78
2022/08/04 08:00:19;;;;;;;0.10;0.10;;;;;;;26.01;56.33;101376.81;5044909;28;20029;-78
2022/08/04 08:02:49;;;;;;;0.10;0.10;;;;;;;26.09;55.64;101370.81;5043150;28;20021;-78
2022/08/04 08:05:17;;;;;;;0.20;0.20;;;;;;;26.05;55.05;101374.72;5043644;28;20033;-77
2022/08/04 08:07:46;;;;;;;0.10;0.10;;;;;;;26.26;55.18;101374.94;5045551;28;20087;-78
2022/08/04 08:10:13;;;;;;;0.65;0.50;;;;;;;26.31;55.07;101375.44;5044548;28;20031;-78
2022/08/04 08:12:40;;;;;;;0.10;0.10;;;;;;;26.31;55.08;101376.28;5043809;28;20028;-78
2022/08/04 08:15:09;;;;;;;0.20;0.20;;;;;;;26.31;54.74;101376.28;5044763;28;20064;-78
2022/08/04 08:17:35;;;;;;;0.30;0.30;;;;;;;26.35;54.31;101379.63;5043763;28;20146;-77
2022/08/04 08:20:02;;;;;;;0.75;0.70;;;;;;;26.29;54.34;101369.25;5043202;28;20022;-78
2022/08/04 08:22:30;;;;;;;0.03;0.03;;;;;;;26.36;54.26;101373.22;5043048;28;20070;-78
2022/08/04 08:24:56;;;;;;;0.10;0.10;;;;;;;26.51;54.67;101370.28;5043554;28;20410;-78
2022/08/04 08:27:23;;;;;;;0.20;0.20;;;;;;;26.51;53.12;101375.72;5043581;28;20085;-76
2022/08/04 08:29:49;;;;;;;0.47;0.47;;;;;;;26.61;53.36;101377.56;5042903;28;20033;-77
2022/08/04 08:32:18;;;;;;;0.10;0.10;;;;;;;26.71;53.20;101372.25;5042310;28;20033;-77
2022/08/04 08:34:44;;;;;;;0.57;0.57;;;;;;;26.75;52.72;101373.75;5043242;28;20056;-78
2022/08/04 08:37:36;;;;;;;0.10;0.10;;;;;;;26.83;51.38;101381.31;5043157;28;20479;-77
2022/08/04 08:43:19;;;;;;;0.20;0.20;;;;;;;26.96;51.61;101379.31;5132199;27;20397;-77
2022/08/04 08:51:23;;;;;;;0.40;0.40;;;;;;;26.90;49.34;101389.81;5079893;28;20387;-77
2022/08/04 08:54:22;;;;;;;0.10;0.10;;;;;;;27.05;49.48;101380.41;5080506;28;20033;-77
2022/08/04 08:57:17;;;;;;;0.32;0.32;;;;;;;27.15;49.37;101390.56;5080372;28;20032;-78
2022/08/04 09:02:58;;;;;;;0.37;0.37;;;;;;;27.32;48.76;101381.00;5127555;27;1168019;-78
2022/08/04 09:05:53;;;;;;;0.80;0.57;;;;;;;27.48;48.99;101383.31;5134133;28;20031;-78
2022/08/04 09:08:46;;;;;;;0.50;0.50;;;;;;;27.54;47.40;101374.66;5120774;28;20027;-77
2022/08/04 09:11:17;;;;;;;0.15;0.15;;;;;;;27.66;46.44;101378.22;5120585;28;20024;-78
2022/08/04 09:14:09;;;;;;;0.10;0.10;;;;;;;27.89;47.31;101382.56;5120813;28;20384;-78
2022/08/04 09:16:52;;;;;;;0.10;0.10;;;;;;;27.90;46.64;101386.13;5121046;28;20028;-78
2022/08/04 09:19:33;;;;;;;0.10;0.10;;;;;;;27.94;46.43;101390.34;5120793;28;20435;-78
2022/08/04 09:22:23;;;;;;;0.10;0.10;;;;;;;27.97;45.35;101392.78;5119994;28;20031;-78
2022/08/04 09:25:13;;;;;;;0.08;0.08;;;;;;;28.17;45.88;101390.25;5121439;28;20043;-78
2022/08/04 09:27:50;;;;;;;0.20;0.20;;;;;;;28.24;44.88;101388.75;5121930;28;20035;-78
2022/08/04 09:30:19;;;;;;;0.10;0.10;;;;;;;28.27;44.89;101402.06;5121578;28;20050;-77
2022/08/04 09:33:06;;;;;;;0.10;0.10;;;;;;;28.32;44.22;101399.81;5120741;28;20055;-78
2022/08/04 09:35:54;;;;;;;0.10;0.10;;;;;;;28.45;45.52;101406.91;5121408;28;20028;-78
2022/08/04 09:38:46;;;;;;;0.03;0.03;;;;;;;28.53;44.45;101415.31;5122075;28;20039;-77
2022/08/04 09:41:22;;;;;;;;;;;;;;;28.72;45.11;101420.91;5120436;28;20040;-77
2022/08/04 09:44:20;;;;;;;0.28;0.28;;;;;;;28.51;42.14;101411.84;5121615;28;19914;-78
2022/08/04 09:47:05;;;;;;;0.10;0.10;;;;;;;28.41;42.20;101415.38;5120790;28;20664;-78
2022/08/04 09:49:51;;;;;;;0.35;0.35;;;;;;;28.39;43.09;101422.81;5121016;28;20035;-78
2022/08/04 09:58:47;;;;;;;0.47;0.47;;;;;;;28.51;43.32;101426.34;5122140;27;20877;-78
2022/08/04 10:01:17;;;;;;;0.22;0.22;;;;;;;28.38;42.62;101425.69;5120627;28;20044;-77
2022/08/04 10:03:50;;;;;;;0.17;0.17;;;;;;;28.26;42.19;101446.66;5121780;28;20051;-77
2022/08/04 10:06:52;;;;;;;0.10;0.10;;;;;;;28.17;41.01;101447.47;5122567;28;20098;-79
2022/08/04 10:09:46;;;;;;;0.10;0.10;;;;;;;28.31;42.25;101441.69;5122018;28;20613;-78
2022/08/04 10:12:34;;;;;;;0.20;0.20;;;;;;;28.23;42.49;101441.50;5120275;28;20588;-78
2022/08/04 10:15:27;;;;;;;0.10;0.10;;;;;;;28.32;41.24;101437.97;5122198;28;20148;-78
2022/08/04 10:23:34;;;;;;;0.40;0.40;;;;;;;28.53;41.56;101454.31;5121003;27;20415;-78
2022/08/04 10:29:09;;;;;;;0.35;0.22;;;;;;;28.60;41.15;101449.22;5121621;27;20388;-78
2022/08/04 10:31:42;;;;;;;0.05;0.05;;;;;;;28.52;40.06;101452.56;5120706;28;20032;-77
2022/08/04 10:34:19;;;;;;;0.10;0.10;;;;;;;28.53;40.42;101458.91;5121955;28;20035;-78
2022/08/04 10:37:17;;;;;;;0.10;0.10;;;;;;;28.57;40.46;101444.00;5121366;28;20651;-77
2022/08/04 10:42:57;;;;;;;0.25;0.25;;;;;;;28.73;40.22;101460.78;5120673;28;20027;-77
2022/08/04 10:45:31;;;;;;;0.10;0.10;;;;;;;28.79;40.67;101464.00;5121381;28;20092;-78
2022/08/04 10:48:12;;;;;;;0.00;0.00;;;;;;;28.86;40.91;101459.69;5121475;28;20648;-78
2022/08/04 10:50:47;;;;;;;0.10;0.10;;;;;;;28.89;40.29;101456.72;5122083;28;20032;-77
2022/08/04 10:53:19;;;;;;;0.10;0.10;;;;;;;28.92;41.02;101459.16;5122325;28;20077;-77
2022/08/04 10:56:02;;;;;;;0.00;0.00;;;;;;;28.99;38.84;101460.34;5121348;28;20038;-78
2022/08/04 10:58:37;;;;;;;0.10;0.10;;;;;;;29.09;40.26;101460.38;5121847;28;20525;-78
2022/08/04 11:01:14;;;;;;;0.10;0.10;;;;;;;29.14;39.61;101462.72;5120519;28;20032;-78
2022/08/04 11:03:48;;;;;;;0.10;0.10;;;;;;;29.31;40.26;101459.34;5121658;28;20028;-77
2022/08/04 11:06:15;;;;;;;0.10;0.10;;;;;;;29.47;40.11;101452.50;5120732;28;20024;-78
2022/08/04 11:08:47;;;;;;;0.20;0.20;;;;;;;29.66;39.52;101452.53;5120518;28;20035;-78
2022/08/04 11:11:33;;;;;;;;;;;;;;;29.91;38.76;101444.84;5119819;28;20028;-78
2022/08/04 11:14:07;;;;;;;0.20;0.20;;;;;;;29.96;40.35;101448.00;5120996;28;19908;-78
2022/08/04 11:19:36;;;;;;;0.10;0.10;;;;;;;29.99;39.34;101435.91;5121116;27;20785;-78
2022/08/04 11:22:13;;;;;;;0.10;0.10;;;;;;;29.99;39.37;101436.78;5120962;28;20035;-78
2022/08/04 11:27:34;;;;;;;0.20;0.20;;;;;;;30.12;39.48;101435.63;5123448;27;20395;-78
2022/08/04 11:30:06;;;;;;;0.10;0.10;;;;;;;30.22;39.31;101436.50;5121521;28;20035;-78
2022/08/04 11:32:42;;;;;;;0.10;0.10;;;;;;;30.25;38.22;101443.53;5121006;28;20046;-78
2022/08/04 11:35:17;;;;;;;0.00;0.00;;;;;;;30.34;39.63;101443.53;5121833;28;20048;-78
2022/08/04 11:38:01;;;;;;;0.10;0.10;;;;;;;30.39;37.31;101436.75;5133186;22;20028;-83
2022/08/04 11:40:40;;;;;;;0.00;0.00;;;;;;;30.54;37.28;101432.56;5073622;28;20090;-83
2022/08/04 11:43:21;;;;;;;0.20;0.20;;;;;;;30.47;37.24;101439.63;5072499;28;20031;-83
2022/08/04 11:46:08;;;;;;;0.10;0.10;;;;;;;30.39;37.20;101440.34;5071287;28;20033;-84
2022/08/04 11:48:51;;;;;;;2.92;1.00;;;;;;;30.45;37.87;101437.00;5081269;28;20052;-84
2022/08/04 11:51:18;;;;;;;0.70;0.32;;;;;;;30.57;36.78;101442.34;5090895;28;20032;-85
2022/08/04 11:53:45;;;;;;;0.10;0.10;;;;;;;30.80;37.53;101434.66;5091401;28;20035;-84
2022/08/04 11:56:13;;;;;;;0.10;0.10;;;;;;;30.92;37.70;101446.28;5093069;28;20102;-84
2022/08/04 11:58:39;;;;;;;0.10;0.10;;;;;;;30.94;36.42;101445.13;5091092;28;20032;-84
2022/08/04 12:04:00;;;;;;;0.10;0.10;;;;;;;30.93;37.25;101446.13;5071703;28;20402;-82
2022/08/04 12:09:48;;;;;;;0.10;0.10;;;;;;;30.68;36.80;101449.53;5070864;28;20394;-83
2022/08/04 12:12:41;;;;;;;0.00;0.00;;;;;;;30.66;36.78;101458.72;5070453;28;20070;-84
2022/08/04 12:18:07;;;;;;;0.10;0.10;;;;;;;30.77;36.80;101451.38;5112109;27;20132;-82
2022/08/04 12:20:42;;;;;;;0.00;0.00;;;;;;;30.85;35.67;101456.09;5112250;28;20386;-83
2022/08/04 12:23:19;;;;;;;0.30;0.30;;;;;;;31.01;36.53;101459.06;5111437;28;20019;-84
2022/08/04 12:25:49;;;;;;;0.00;0.00;;;;;;;31.10;38.63;101463.66;5110988;28;20381;-83
2022/08/04 12:28:23;;;;;;;0.00;0.00;;;;;;;31.08;35.28;101452.00;5109381;28;20024;-83
2022/08/04 12:30:56;;;;;;;0.08;0.08;;;;;;;31.08;35.85;101453.88;5109298;28;20035;-83
2022/08/04 12:33:31;;;;;;;0.10;0.10;;;;;;;31.20;36.79;101463.59;5109698;28;20401;-83
2022/08/04 12:36:07;;;;;;;0.10;0.10;;;;;;;31.20;34.86;101452.66;5109023;28;20027;-83
2022/08/04 12:38:34;;;;;;;0.00;0.00;;;;;;;31.19;35.27;101461.91;5109639;28;20036;-83
2022/08/04 12:41:03;;;;;;;0.20;0.20;;;;;;;31.17;35.17;101455.72;5109393;28;20111;-83
2022/08/04 12:43:38;;;;;;;0.10;0.10;;;;;;;31.25;35.87;101458.53;5109364;28;20554;-84
2022/08/04 12:46:07;;;;;;;0.20;0.20;;;;;;;31.09;35.72;101451.00;5108882;28;20486;-83
2022/08/04 12:48:36;;;;;;;0.13;0.13;;;;;;;31.14;35.07;101459.63;5109245;28;20035;-84
2022/08/04 12:51:05;;;;;;;0.10;0.10;;;;;;;31.24;35.56;101464.16;5109021;28;20056;-83
2022/08/04 12:53:37;;;;;;;0.10;0.10;;;;;;;31.40;35.55;101463.50;5109166;28;20114;-84
2022/08/04 12:56:05;;;;;;;;;;;;;;;31.64;34.82;101459.34;5109136;28;20032;-83
2022/08/04 12:58:36;;;;;;;0.10;0.10;;;;;;;31.46;33.28;101458.28;5108756;28;19908;-83
2022/08/04 13:01:07;;;;;;;0.90;0.53;;;;;;;31.50;34.44;101475.25;5108539;28;20067;-83
2022/08/04 13:03:40;;;;;;;0.03;0.03;;;;;;;31.38;33.08;101468.28;5111017;28;20272;-82
2022/08/04 13:06:10;;;;;;;0.10;0.10;;;;;;;31.26;33.52;101467.63;5116089;28;20031;-83
2022/08/04 13:08:40;;;;;;;0.10;0.10;;;;;;;31.40;34.22;101471.72;5112727;28;20032;-84
2022/08/04 13:11:08;;;;;;;0.45;0.45;;;;;;;31.39;34.15;101483.69;5110555;28;20098;-84
2022/08/04 13:13:37;;;;;;;0.00;0.00;;;;;;;31.25;33.81;101476.84;5113152;28;20024;-83
2022/08/04 13:16:06;;;;;;;0.10;0.10;;;;;;;31.21;33.21;101468.06;5109173;28;20028;-83
2022/08/04 13:18:39;;;;;;;0.10;0.10;;;;;;;31.37;33.66;101488.47;5110048;28;20032;-83
2022/08/04 13:23:52;;;;;;;0.10;0.10;;;;;;;31.28;34.09;101482.88;5085805;28;20386;-83
2022/08/04 13:26:20;;;;;;;0.00;0.00;;;;;;;31.20;33.89;101479.19;5070067;28;20064;-84
2022/08/04 13:28:49;;;;;;;0.00;0.00;;;;;;;31.23;33.47;101477.00;5070478;28;20059;-84
2022/08/04 13:31:20;;;;;;;1.05;0.50;;;;;;;31.35;33.88;101476.81;5067619;28;20029;-84
2022/08/04 13:33:50;;;;;;;0.10;0.10;;;;;;;31.35;34.70;101482.28;5069420;28;20043;-84
2022/08/04 13:36:18;;;;;;;0.03;0.03;;;;;;;31.52;33.29;101478.72;5069095;28;20064;-84
2022/08/04 13:38:56;;;;;;;0.05;0.05;;;;;;;31.65;33.74;101466.56;5069655;28;20035;-84
2022/08/04 13:41:25;;;;;;;0.10;0.10;;;;;;;31.64;33.69;101470.31;5068613;28;20063;-84
2022/08/04 13:43:57;;;;;;;0.00;0.00;;;;;;;31.73;33.12;101478.47;5070464;28;20036;-84
2022/08/04 13:46:30;;;;;;;0.10;0.10;;;;;;;31.74;32.98;101471.09;5070067;28;20035;-84
2022/08/04 13:48:58;;;;;;;0.00;0.00;;;;;;;31.75;33.14;101470.97;5069371;28;20025;-85
2022/08/04 13:51:26;;;;;;;0.10;0.10;;;;;;;31.87;32.88;101468.84;5069619;28;20036;-84
2022/08/04 13:54:01;;;;;;;0.30;0.30;;;;;;;31.91;32.76;101472.16;5077894;28;20059;-84
2022/08/04 13:56:38;;;;;;;0.20;0.20;;;;;;;32.05;32.94;101478.94;5072627;28;20049;-84
2022/08/04 13:59:09;;;;;;;0.10;0.10;;;;;;;32.15;32.65;101484.34;5069427;28;20029;-84
2022/08/04 14:01:40;;;;;;;0.20;0.20;;;;;;;32.19;32.59;101480.28;5069026;28;20033;-83
2022/08/04 14:04:20;;;;;;;0.03;0.03;;;;;;;32.30;32.41;101473.72;5070080;28;20111;-83
2022/08/04 14:06:57;;;;;;;0.00;0.00;;;;;;;32.29;32.28;101477.47;5069693;28;20028;-83
2022/08/04 14:09:25;;;;;;;0.20;0.20;;;;;;;32.25;32.56;101469.59;5070032;28;20123;-84
2022/08/04 14:11:55;;;;;;;0.00;0.00;;;;;;;32.28;32.23;101483.97;5069061;28;20119;-82
2022/08/04 14:17:05;;;;;;;0.00;0.00;;;;;;;32.24;32.35;101478.81;5135496;27;20334;-83
2022/08/04 14:25:17;;;;;;;0.00;0.00;;;;;;;32.19;32.64;101486.66;5111496;27;20399;-82
2022/08/04 14:27:49;;;;;;;0.00;0.00;;;;;;;32.25;32.81;101491.53;5111523;28;20032;-83
2022/08/04 14:33:09;;;;;;;0.10;0.10;;;;;;;31.85;31.97;101487.34;5116422;27;1203769;-82
2022/08/04 14:35:37;;;;;;;0.03;0.03;;;;;;;31.78;32.91;101494.47;5122857;27;20047;-82
2022/08/04 14:38:08;;;;;;;0.13;0.13;;;;;;;31.72;33.08;101495.06;5112320;28;20051;-84
2022/08/04 14:40:37;;;;;;;0.00;0.00;;;;;;;31.50;33.50;101494.44;5111114;28;20038;-83
2022/08/04 14:43:05;;;;;;;0.10;0.10;;;;;;;31.40;33.41;101501.84;5111515;28;20493;-83
2022/08/04 14:45:34;;;;;;;0.00;0.00;;;;;;;31.51;33.63;101504.38;5111266;28;20024;-84
2022/08/04 14:48:05;;;;;;;0.08;0.08;;;;;;;31.54;33.04;101498.63;5110562;28;20434;-83
2022/08/04 14:53:21;;;;;;;0.00;0.00;;;;;;;31.60;33.47;101499.84;5012017;28;20832;-83
2022/08/04 14:55:51;;;;;;;0.10;0.10;;;;;;;31.50;33.06;101507.28;5008782;28;20038;-82
2022/08/04 14:58:21;;;;;;;0.00;0.00;;;;;;;31.48;33.17;101503.81;5007049;28;20054;-82
2022/08/04 15:00:48;;;;;;;0.40;0.40;;;;;;;31.45;33.40;101499.50;5005492;28;20034;-82
2022/08/04 15:03:17;;;;;;;0.10;0.10;;;;;;;31.55;33.98;101500.31;5006767;28;20143;-84